This is the latest recevied weather packets stored in our database for station/object DK7AK. If no packets are shown the sender has not sent any weather packets the latest 10 day(s).
| Time | Temp. | Humidity | Pressure | Rain* | Wind** | Luminosity | Snow |
|---|---|---|---|---|---|---|---|
| 1777533004 | 10.56° C | 30% | 1021.6 hPa | 0 mm | - | - | - |
| 1777530008 | 6.11° C | 44% | 1021.9 hPa | 0 mm | - | - | - |
| 1777493704 | 8.33° C | 40% | 1018.6 hPa | 0 mm | - | - | - |
| 1777492204 | 8.89° C | 40% | 1018.7 hPa | 0 mm | - | - | - |
| 1777490404 | 9.44° C | 40% | 1018.3 hPa | 0 mm | - | - | - |
| 1777487704 | 11.11° C | 34% | 1017.6 hPa | 0 mm | - | - | - |
| 1777487404 | 11.11° C | 34% | 1017.2 hPa | 0 mm | - | - | - |
| 1777487104 | 11.67° C | 33% | 1017.3 hPa | 0 mm | - | - | - |
| 1777485004 | 13.33° C | 28% | 1016.8 hPa | 0 mm | - | - | - |
| 1777478704 | 17.22° C | 26% | 1016.1 hPa | 0 mm | - | - | - |
| 1777477205 | 18.33° C | 24% | 1015.9 hPa | 0 mm | - | - | - |
| 1777474804 | 18.33° C | 25% | 1016.3 hPa | 0 mm | - | - | - |
| 1777474204 | 18.33° C | 25% | 1015.9 hPa | 0 mm | - | - | - |
| 1777473605 | 17.78° C | 24% | 1015.9 hPa | 0 mm | - | - | - |
| 1777472704 | 18.33° C | 24% | 1015.9 hPa | 0 mm | - | - | - |
| 1777468804 | 18.33° C | 23% | 1015.9 hPa | 0 mm | - | - | - |
| 1777466104 | 18.89° C | 22% | 1016 hPa | 0 mm | - | - | - |
| 1777464604 | 18.89° C | 22% | 1016.1 hPa | 0 mm | - | - | - |
| 1777463704 | 18.33° C | 22% | 1015.8 hPa | 0 mm | - | - | - |
| 1777463404 | 17.78° C | 21% | 1016.2 hPa | 0 mm | - | - | - |
| 1777463104 | 17.78° C | 21% | 1016 hPa | 0 mm | - | - | - |
| 1777461304 | 17.78° C | 21% | 1016.3 hPa | 0 mm | - | - | - |
| 1777460104 | 17.22° C | 22% | 1016.3 hPa | 0 mm | - | - | - |
| 1777459804 | 16.67° C | 22% | 1016.4 hPa | 0 mm | - | - | - |
| 1777455604 | 16.11° C | 26% | 1016.5 hPa | 0 mm | - | - | - |
* Rain latest hour (hover to see other rain measurements)
** Current wind speed in m/s (hover to see current wind gust speed)